Cordele, Georgia
Current Conditions -  °F | °C
As of 4:35 AM on Sunday 23 Nov 2014 (Local Time) from KCKF Reporting Station
Light Rain Light Rain  
Wind Chill: 62°   Ceiling: 600
Heat Index: 62°   Visibility: 7mi
Dew Point: 60°   Wind: 13mph
Humidity: 94%   Direction: 90°E
Pressure: 30.02"   Gusts: 20mph
Location:  31.97°N, 83.78°W
Report Text: KCKF 230935Z AUTO 09011G17KT 7SM -RA OVC006 17/16 A3002 RMK AO2 T01650155
Loading
Personal Weather Stations






























Interactive Weather Map New forecast layout! Learn more

10-Day Weather Forecast

Advertisements
Track Severe Weather on mobile